createdAt,value
2018-06-20T00:00:28.305Z,4.00
2018-06-20T00:02:55.958Z,3.70
2018-06-20T00:05:24.022Z,3.90
2018-06-20T00:07:51.874Z,4.13
2018-06-20T00:10:19.616Z,4.27
2018-06-20T00:12:47.189Z,4.03
2018-06-20T00:15:14.659Z,4.30
2018-06-20T00:17:42.044Z,4.00
2018-06-20T00:20:09.493Z,3.83
2018-06-20T00:22:37.063Z,4.20
2018-06-20T00:25:04.694Z,3.80
2018-06-20T00:27:33.264Z,4.20
2018-06-20T00:30:01.857Z,4.27
2018-06-20T00:32:34.058Z,4.73
2018-06-20T00:35:02.020Z,5.10
2018-06-20T00:37:29.987Z,4.60
2018-06-20T00:39:57.901Z,4.40
2018-06-20T00:42:25.803Z,4.47
2018-06-20T00:44:53.358Z,4.90
2018-06-20T00:47:21.705Z,4.37
2018-06-20T00:49:49.336Z,4.53
2018-06-20T00:52:16.860Z,4.27
2018-06-20T00:54:44.623Z,4.83
2018-06-20T00:57:12.153Z,4.57
2018-06-20T00:59:39.648Z,4.37
2018-06-20T01:02:07.219Z,4.53
2018-06-20T01:04:34.826Z,4.90
2018-06-20T01:07:02.503Z,4.70
2018-06-20T01:09:30.055Z,4.63
2018-06-20T01:11:57.930Z,5.20
2018-06-20T01:14:26.814Z,4.90
2018-06-20T01:16:55.914Z,4.63
2018-06-20T01:19:23.881Z,4.67
2018-06-20T01:21:52.556Z,5.70
2018-06-20T01:24:20.232Z,5.00
2018-06-20T01:26:47.658Z,4.67
2018-06-20T01:29:15.108Z,4.67
2018-06-20T01:31:42.662Z,4.80
2018-06-20T01:34:10.210Z,4.20
2018-06-20T01:36:37.669Z,4.63
2018-06-20T01:39:07.277Z,4.97
2018-06-20T01:41:35.040Z,5.10
2018-06-20T01:44:03.033Z,6.00
2018-06-20T01:46:30.805Z,5.90
2018-06-20T01:48:59.085Z,6.23
2018-06-20T01:51:27.092Z,6.07
2018-06-20T01:53:55.325Z,5.40
2018-06-20T01:56:23.754Z,6.03
2018-06-20T01:58:52.926Z,5.70
2018-06-20T02:01:20.531Z,5.50
2018-06-20T02:03:48.055Z,6.70
2018-06-20T02:06:15.770Z,5.67
2018-06-20T02:08:43.960Z,5.57
2018-06-20T02:11:11.600Z,6.40
2018-06-20T02:13:38.959Z,5.30
2018-06-20T02:16:06.445Z,6.23
2018-06-20T02:18:33.976Z,6.10
2018-06-20T02:21:01.640Z,5.80
2018-06-20T02:23:29.696Z,5.50
2018-06-20T02:25:58.935Z,5.90
2018-06-20T02:28:26.755Z,5.33
2018-06-20T02:30:54.304Z,6.10
2018-06-20T02:33:21.870Z,6.70
2018-06-20T02:35:50.671Z,5.60
2018-06-20T02:38:19.381Z,5.70
2018-06-20T02:40:46.951Z,5.40
2018-06-20T02:43:14.552Z,5.03
2018-06-20T02:45:42.177Z,5.60
2018-06-20T02:48:09.790Z,5.43
2018-06-20T02:50:37.215Z,5.70
2018-06-20T02:53:05.106Z,7.50
2018-06-20T02:55:34.284Z,6.07
2018-06-20T02:58:02.391Z,5.60
2018-06-20T03:00:31.063Z,6.13
2018-06-20T03:03:00.444Z,5.63
2018-06-20T03:05:28.877Z,5.63
2018-06-20T03:07:56.734Z,5.77
2018-06-20T03:10:24.406Z,6.00
2018-06-20T03:12:53.957Z,4.97
2018-06-20T03:15:22.133Z,5.40
2018-06-20T03:17:50.136Z,5.17
2018-06-20T03:20:17.585Z,5.43
2018-06-20T03:22:45.021Z,4.80
2018-06-20T03:25:12.528Z,5.63
2018-06-20T03:27:39.892Z,5.53
2018-06-20T03:30:07.249Z,5.60
2018-06-20T03:32:34.812Z,5.90
2018-06-20T03:35:02.285Z,6.20
2018-06-20T03:37:29.692Z,5.80
2018-06-20T03:39:57.187Z,5.50
2018-06-20T03:42:24.573Z,6.27
2018-06-20T03:44:52.049Z,5.70
2018-06-20T03:47:19.442Z,5.67
2018-06-20T03:49:46.951Z,5.80
2018-06-20T03:52:14.401Z,6.20
2018-06-20T03:54:41.747Z,4.80
2018-06-20T03:57:09.100Z,6.07
2018-06-20T03:59:36.473Z,6.50
2018-06-20T04:02:03.944Z,6.40
2018-06-20T04:04:31.365Z,5.90
2018-06-20T04:06:58.713Z,4.97
2018-06-20T04:09:26.280Z,5.93
2018-06-20T04:11:54.071Z,5.70
2018-06-20T04:14:21.509Z,5.80
2018-06-20T04:16:49.029Z,5.23
2018-06-20T04:19:16.426Z,5.10
2018-06-20T04:21:44.106Z,5.00
2018-06-20T04:24:11.492Z,5.50
2018-06-20T04:26:38.886Z,6.20
2018-06-20T04:29:06.416Z,5.43
2018-06-20T04:31:33.914Z,5.30
2018-06-20T04:34:01.454Z,4.70
2018-06-20T04:36:28.881Z,5.23
2018-06-20T04:38:56.419Z,4.90
2018-06-20T04:41:23.854Z,5.33
2018-06-20T04:43:51.173Z,5.13
2018-06-20T04:46:18.538Z,4.23
2018-06-20T04:48:46.866Z,4.80
2018-06-20T04:51:14.244Z,5.00
2018-06-20T04:53:41.608Z,3.83
2018-06-20T04:56:08.954Z,4.77
2018-06-20T04:58:36.409Z,4.47
2018-06-20T05:01:03.755Z,4.50
2018-06-20T05:03:31.188Z,4.43
2018-06-20T05:05:58.589Z,4.17
2018-06-20T05:08:26.095Z,3.80
2018-06-20T05:10:53.547Z,3.97
2018-06-20T05:13:20.901Z,4.37
2018-06-20T05:15:48.230Z,3.60
2018-06-20T05:18:15.578Z,3.50
2018-06-20T05:20:42.899Z,3.90
2018-06-20T05:23:10.257Z,3.80
2018-06-20T05:25:37.656Z,3.60
2018-06-20T05:28:05.071Z,4.07
2018-06-20T05:30:32.792Z,3.77
2018-06-20T05:33:00.211Z,3.40
2018-06-20T05:35:27.560Z,3.97
2018-06-20T05:37:54.898Z,3.37
2018-06-20T05:40:22.225Z,3.53
2018-06-20T05:42:49.502Z,3.40
2018-06-20T05:45:16.909Z,3.50
2018-06-20T05:47:44.279Z,3.70
2018-06-20T05:50:11.584Z,3.27
2018-06-20T05:52:38.922Z,3.37
2018-06-20T05:55:06.548Z,3.00
2018-06-20T05:57:33.939Z,3.30
2018-06-20T06:00:01.496Z,2.77
2018-06-20T06:02:28.875Z,3.13
2018-06-20T06:04:56.199Z,3.20
2018-06-20T06:07:23.629Z,3.07
2018-06-20T06:09:51.012Z,3.40
2018-06-20T06:12:18.355Z,3.50
2018-06-20T06:14:45.688Z,3.10
2018-06-20T06:17:13.019Z,3.67
2018-06-20T06:19:40.337Z,2.97
2018-06-20T06:22:08.674Z,3.47
2018-06-20T06:24:36.127Z,2.70
2018-06-20T06:27:03.524Z,3.17
2018-06-20T06:29:30.940Z,3.03
2018-06-20T06:31:58.429Z,3.30
2018-06-20T06:34:25.890Z,3.40
2018-06-20T06:36:53.277Z,2.90
2018-06-20T06:39:20.712Z,2.80
2018-06-20T06:41:48.054Z,2.77
2018-06-20T06:44:15.412Z,3.40
2018-06-20T06:46:42.974Z,3.10
2018-06-20T06:49:10.384Z,2.70
2018-06-20T06:51:38.236Z,3.30
2018-06-20T06:54:05.787Z,2.73
2018-06-20T06:56:33.196Z,3.13
2018-06-20T06:59:00.648Z,2.80
2018-06-20T07:01:28.054Z,2.87
2018-06-20T07:03:55.424Z,2.70
2018-06-20T07:06:22.887Z,2.60
2018-06-20T07:08:50.297Z,3.07
2018-06-20T07:11:17.784Z,3.03
2018-06-20T07:13:45.204Z,3.37
2018-06-20T07:16:12.839Z,2.83
2018-06-20T07:18:40.296Z,3.30
2018-06-20T07:21:07.864Z,3.07
2018-06-20T07:23:35.368Z,2.80
2018-06-20T07:26:02.953Z,2.90
2018-06-20T07:28:30.510Z,3.30
2018-06-20T07:30:57.898Z,3.03
2018-06-20T07:33:25.359Z,3.10
2018-06-20T07:35:52.880Z,2.53
2018-06-20T07:38:20.210Z,2.70
2018-06-20T07:40:47.708Z,3.43
2018-06-20T07:43:15.225Z,3.20
2018-06-20T07:45:42.664Z,2.47
2018-06-20T07:48:10.267Z,2.50
2018-06-20T07:50:37.667Z,3.47
2018-06-20T07:53:05.075Z,2.87
2018-06-20T07:55:32.497Z,2.90
2018-06-20T07:58:00.016Z,2.70
2018-06-20T08:00:32.729Z,2.77
2018-06-20T08:03:11.136Z,3.10
2018-06-20T08:05:43.785Z,2.87
2018-06-20T08:08:16.688Z,2.67
2018-06-20T08:10:49.485Z,3.17
2018-06-20T08:13:22.166Z,2.80
2018-06-20T08:15:54.872Z,3.57
2018-06-20T08:18:27.540Z,3.33
2018-06-20T08:20:54.985Z,2.97
2018-06-20T08:23:22.472Z,3.33
2018-06-20T08:25:50.088Z,3.17
2018-06-20T08:28:17.690Z,3.00
2018-06-20T08:30:45.325Z,3.20
2018-06-20T08:33:12.913Z,3.13
2018-06-20T08:35:40.551Z,2.67
2018-06-20T08:38:08.145Z,2.70
2018-06-20T08:40:35.718Z,2.60
2018-06-20T08:43:03.277Z,2.60
2018-06-20T08:45:30.850Z,2.63
2018-06-20T08:47:58.384Z,2.83
2018-06-20T08:50:26.884Z,2.63
2018-06-20T08:52:54.766Z,2.80
2018-06-20T08:55:22.201Z,2.80
2018-06-20T08:57:49.583Z,2.90
2018-06-20T09:00:21.360Z,2.80
2018-06-20T09:02:48.817Z,3.10
2018-06-20T09:05:21.667Z,3.13
2018-06-20T09:07:54.483Z,2.93
2018-06-20T09:10:27.274Z,3.00
2018-06-20T09:13:58.512Z,2.70
2018-06-20T09:16:31.204Z,2.37
2018-06-20T09:19:04.137Z,2.40
2018-06-20T09:21:31.697Z,2.60
2018-06-20T09:24:00.331Z,2.33
2018-06-20T09:26:27.824Z,2.40
2018-06-20T09:28:55.224Z,2.93
2018-06-20T09:31:23.760Z,2.40
2018-06-20T09:33:51.910Z,2.40
2018-06-20T09:36:19.684Z,2.43
2018-06-20T09:38:47.442Z,2.37
2018-06-20T09:41:15.163Z,2.40
2018-06-20T09:43:42.840Z,3.83
2018-06-20T09:46:10.242Z,2.70
2018-06-20T09:48:37.698Z,2.87
2018-06-20T09:51:05.827Z,2.93
2018-06-20T09:53:33.386Z,2.90
2018-06-20T09:56:01.731Z,2.80
2018-06-20T09:58:29.331Z,2.77
2018-06-20T10:01:02.026Z,2.83
2018-06-20T10:03:35.770Z,3.07
2018-06-20T10:06:08.602Z,2.50
2018-06-20T10:08:41.404Z,2.80
2018-06-20T10:13:21.485Z,2.53
2018-06-20T10:15:50.560Z,2.70
2018-06-20T10:18:18.190Z,2.80
2018-06-20T10:20:45.809Z,2.40
2018-06-20T10:23:13.303Z,2.30
2018-06-20T10:25:40.752Z,2.97
2018-06-20T10:28:08.238Z,2.53
2018-06-20T10:30:36.727Z,2.50
2018-06-20T10:33:04.961Z,2.37
2018-06-20T10:35:32.602Z,2.80
2018-06-20T10:38:00.328Z,2.17
2018-06-20T10:40:27.994Z,2.73
2018-06-20T10:42:55.605Z,2.20
2018-06-20T10:45:28.284Z,3.13
2018-06-20T10:47:55.988Z,2.40
2018-06-20T10:50:24.206Z,2.63
2018-06-20T10:52:51.702Z,2.50
2018-06-20T10:55:19.121Z,2.63
2018-06-20T10:57:51.952Z,2.77
2018-06-20T11:00:24.579Z,3.30
2018-06-20T11:02:57.441Z,2.33
2018-06-20T11:05:30.279Z,2.60
2018-06-20T11:08:03.317Z,2.60
2018-06-20T11:10:36.154Z,2.70
2018-06-20T11:13:10.487Z,2.87
2018-06-20T11:15:38.012Z,2.73
2018-06-20T11:18:05.633Z,2.40
2018-06-20T11:20:38.552Z,2.70
2018-06-20T11:23:05.998Z,2.53
2018-06-20T11:25:33.575Z,2.40
2018-06-20T11:28:01.170Z,2.80
2018-06-20T11:30:29.475Z,2.67
2018-06-20T11:32:58.041Z,2.60
2018-06-20T11:35:26.027Z,3.13
2018-06-20T11:37:53.810Z,3.30
2018-06-20T11:40:21.390Z,2.63
2018-06-20T11:42:49.113Z,2.90
2018-06-20T11:45:16.807Z,3.50
2018-06-20T11:47:45.668Z,2.80
2018-06-20T11:50:14.129Z,3.03
2018-06-20T11:52:46.983Z,2.70
2018-06-20T11:55:19.788Z,2.83
2018-06-20T11:57:47.312Z,3.07
2018-06-20T12:00:20.085Z,2.80
2018-06-20T12:02:53.250Z,2.93
2018-06-20T12:05:26.158Z,3.50
2018-06-20T12:07:59.969Z,3.13
2018-06-20T12:10:32.868Z,3.67
2018-06-20T12:13:06.876Z,3.40
2018-06-20T12:15:42.439Z,2.97
2018-06-20T12:18:24.117Z,3.37
2018-06-20T12:21:03.179Z,4.63
2018-06-20T12:23:36.553Z,3.03
2018-06-20T12:26:09.515Z,2.90
2018-06-20T12:28:42.365Z,3.60
2018-06-20T12:31:15.148Z,3.60
2018-06-20T12:33:48.146Z,2.90
2018-06-20T12:39:05.805Z,2.90
2018-06-20T13:19:54.902Z,2.80
2018-06-20T13:27:50.077Z,3.10
2018-06-20T13:30:17.641Z,3.37
2018-06-20T13:32:50.524Z,2.80
2018-06-20T13:35:23.348Z,2.90
2018-06-20T13:37:56.326Z,2.30
2018-06-20T13:40:29.635Z,2.47
2018-06-20T13:43:03.975Z,2.90
2018-06-20T13:45:36.826Z,2.63
2018-06-20T13:48:09.791Z,2.70
2018-06-20T13:50:37.669Z,2.80
2018-06-20T13:53:05.147Z,2.70
2018-06-20T13:55:32.648Z,2.70
2018-06-20T13:57:59.999Z,2.70
2018-06-20T14:00:28.076Z,2.73
2018-06-20T14:02:56.645Z,2.40
2018-06-20T14:05:24.247Z,2.20
2018-06-20T14:07:51.739Z,2.50
2018-06-20T14:10:19.751Z,2.30
2018-06-20T14:12:47.483Z,3.00
2018-06-20T14:15:15.130Z,2.37
2018-06-20T14:17:43.626Z,2.77
2018-06-20T14:20:17.117Z,2.30
2018-06-20T14:22:44.671Z,2.70
2018-06-20T14:25:13.274Z,2.60
2018-06-20T14:27:41.558Z,2.60
2018-06-20T14:30:09.240Z,2.30
2018-06-20T14:32:42.382Z,2.30
2018-06-20T14:35:15.878Z,2.80
2018-06-20T14:37:48.865Z,1.80
2018-06-20T14:47:12.125Z,2.13
2018-06-20T14:49:40.400Z,2.43
2018-06-20T14:52:07.927Z,2.20
2018-06-20T14:54:38.582Z,2.23
2018-06-20T14:57:07.062Z,2.17
2018-06-20T14:59:39.671Z,2.30
2018-06-20T15:02:08.021Z,2.13
2018-06-20T15:04:35.461Z,2.17
2018-06-20T15:07:03.952Z,2.30
2018-06-20T15:09:32.190Z,2.30
2018-06-20T15:12:06.811Z,2.10
2018-06-20T15:14:35.545Z,2.07
2018-06-20T15:17:08.677Z,2.47
2018-06-20T15:19:36.343Z,2.10
2018-06-20T15:22:04.620Z,2.57
2018-06-20T15:24:34.362Z,2.13
2018-06-20T15:27:07.466Z,2.13
2018-06-20T15:29:40.515Z,1.93
2018-06-20T15:32:13.807Z,2.10
2018-06-20T15:34:46.687Z,2.30
2018-06-20T15:37:19.495Z,2.30
2018-06-20T15:39:47.321Z,2.07
2018-06-20T15:42:14.933Z,1.97
2018-06-20T15:44:42.932Z,2.10
2018-06-20T15:47:10.417Z,2.13
2018-06-20T15:49:38.166Z,2.30
2018-06-20T15:52:06.074Z,2.53
2018-06-20T15:54:33.953Z,2.20
2018-06-20T15:57:02.137Z,2.53
2018-06-20T15:59:30.616Z,2.20
2018-06-20T16:01:58.733Z,1.87
2018-06-20T16:04:26.794Z,2.10
2018-06-20T16:06:55.524Z,2.60
2018-06-20T16:09:28.585Z,2.10
2018-06-20T16:11:57.670Z,2.47
2018-06-20T16:14:25.745Z,1.93
2018-06-20T16:16:54.973Z,2.13
2018-06-20T16:19:29.331Z,2.00
2018-06-20T16:33:08.023Z,1.67
2018-06-20T16:38:31.497Z,1.70
2018-06-20T16:41:02.762Z,1.67
2018-06-20T16:43:34.423Z,2.00
2018-06-20T16:46:07.126Z,1.77
2018-06-20T16:52:09.023Z,2.00
2018-06-20T17:03:08.436Z,1.60
2018-06-20T17:05:38.743Z,1.80
2018-06-20T17:08:09.391Z,3.20
2018-06-20T17:10:37.484Z,2.03
2018-06-20T17:15:15.579Z,2.20
2018-06-20T17:26:41.772Z,1.83
2018-06-20T17:29:12.452Z,1.83
2018-06-20T17:31:44.452Z,1.53
2018-06-20T17:34:18.499Z,2.20
2018-06-20T17:36:47.002Z,1.50
2018-06-20T17:39:14.979Z,1.63
2018-06-20T17:41:43.881Z,1.67
2018-06-20T17:51:16.749Z,1.80
2018-06-20T17:53:46.258Z,1.73
2018-06-20T17:56:14.385Z,1.63
2018-06-20T17:58:47.673Z,1.30
2018-06-20T18:01:18.049Z,1.47
2018-06-20T18:03:46.322Z,1.40
2018-06-20T18:12:18.060Z,1.90
2018-06-20T18:23:21.084Z,1.90
2018-06-20T18:31:53.941Z,1.77
2018-06-20T18:34:22.665Z,2.03
2018-06-20T18:36:50.578Z,1.80
2018-06-20T18:39:18.596Z,1.77
2018-06-20T18:50:14.212Z,1.83
2018-06-20T18:52:54.368Z,1.67
2018-06-20T18:55:26.321Z,2.70
2018-06-20T19:08:58.092Z,1.83
2018-06-20T19:11:26.040Z,2.13
2018-06-20T19:13:54.575Z,1.97
2018-06-20T19:16:22.789Z,2.10
2018-06-20T19:18:50.401Z,1.97
2018-06-20T19:21:18.069Z,1.80
2018-06-20T19:23:45.645Z,1.83
2018-06-20T19:26:13.036Z,1.63
2018-06-20T19:28:40.463Z,1.87
2018-06-20T19:31:07.875Z,2.07
2018-06-20T19:33:35.395Z,2.07
2018-06-20T19:36:03.145Z,1.90
2018-06-20T19:38:32.304Z,2.03
2018-06-20T19:41:00.714Z,2.50
2018-06-20T19:43:28.288Z,2.23
2018-06-20T19:45:56.852Z,2.43
2018-06-20T19:48:24.507Z,2.80
2018-06-20T19:50:52.222Z,2.57
2018-06-20T19:53:19.831Z,2.40
2018-06-20T19:55:48.143Z,2.63
2018-06-20T19:58:16.252Z,3.17
2018-06-20T20:00:43.683Z,3.20
2018-06-20T20:03:11.090Z,4.10
2018-06-20T20:05:38.633Z,3.60
2018-06-20T20:08:06.755Z,4.70
2018-06-20T20:10:36.198Z,4.80
2018-06-20T20:13:05.641Z,5.10
2018-06-20T20:15:33.407Z,4.97
2018-06-20T20:18:01.933Z,4.60
2018-06-20T20:20:29.476Z,4.90
2018-06-20T20:22:58.566Z,4.40
2018-06-20T20:25:26.171Z,5.10
2018-06-20T20:27:55.974Z,5.17
2018-06-20T20:30:23.842Z,5.33
2018-06-20T20:35:35.090Z,5.30
2018-06-20T20:38:02.656Z,5.73
2018-06-20T20:40:31.219Z,5.17
2018-06-20T20:42:59.365Z,5.50
2018-06-20T20:45:27.103Z,5.27
2018-06-20T20:47:54.741Z,5.13
2018-06-20T20:50:22.731Z,4.87
2018-06-20T20:52:50.681Z,5.63
2018-06-20T20:55:18.297Z,5.57
2018-06-20T20:57:45.788Z,5.17
2018-06-20T21:00:13.634Z,6.17
2018-06-20T21:02:41.053Z,5.17
2018-06-20T21:05:08.410Z,5.87
2018-06-20T21:07:35.905Z,5.40
2018-06-20T21:10:03.316Z,5.40
2018-06-20T21:12:32.929Z,4.80
2018-06-20T21:15:00.671Z,4.13
2018-06-20T21:17:28.429Z,5.00
2018-06-20T21:19:56.197Z,5.03
2018-06-20T21:22:23.908Z,5.03
2018-06-20T21:24:52.231Z,5.40
2018-06-20T21:27:20.073Z,4.63
2018-06-20T21:29:47.581Z,4.70
2018-06-20T21:32:15.092Z,4.13
2018-06-20T21:34:42.523Z,4.43
2018-06-20T21:37:10.100Z,3.77
2018-06-20T21:39:37.531Z,4.07
2018-06-20T21:42:04.994Z,3.73
2018-06-20T21:44:32.626Z,3.70
2018-06-20T21:47:00.349Z,4.10
2018-06-20T21:49:28.015Z,4.10
2018-06-20T21:51:55.568Z,3.90
2018-06-20T21:54:23.743Z,4.10
2018-06-20T21:56:51.348Z,4.00
2018-06-20T21:59:18.829Z,4.00
2018-06-20T22:01:46.794Z,3.70
2018-06-20T22:04:14.230Z,3.60
2018-06-20T22:06:41.699Z,3.90
2018-06-20T22:09:09.754Z,3.70
2018-06-20T22:11:37.140Z,4.00
2018-06-20T22:14:05.213Z,3.67
2018-06-20T22:16:34.135Z,4.00
2018-06-20T22:19:01.790Z,3.73
2018-06-20T22:21:29.457Z,3.73
2018-06-20T22:23:57.352Z,3.67
2018-06-20T22:26:25.499Z,4.07
2018-06-20T22:28:54.191Z,4.07
2018-06-20T22:31:22.339Z,3.80
2018-06-20T22:33:50.329Z,3.30
2018-06-20T22:36:17.751Z,3.20
2018-06-20T22:38:45.304Z,3.60
2018-06-20T22:41:12.747Z,3.60
2018-06-20T22:43:40.171Z,3.40
2018-06-20T22:46:07.711Z,3.50
2018-06-20T22:48:35.208Z,3.13
2018-06-20T22:51:02.714Z,3.40
2018-06-20T22:53:30.546Z,3.50
2018-06-20T22:55:58.177Z,3.90
2018-06-20T22:58:25.832Z,3.50
2018-06-20T23:00:53.354Z,3.23
2018-06-20T23:03:21.035Z,3.37
2018-06-20T23:05:48.723Z,3.53
2018-06-20T23:08:16.477Z,3.43
2018-06-20T23:10:43.949Z,3.80
2018-06-20T23:13:11.323Z,3.20
2018-06-20T23:15:38.690Z,3.43
2018-06-20T23:18:06.114Z,3.93
2018-06-20T23:20:33.801Z,3.30
2018-06-20T23:23:01.471Z,3.57
2018-06-20T23:25:29.178Z,3.80
2018-06-20T23:27:56.581Z,3.87
2018-06-20T23:30:24.191Z,3.97
2018-06-20T23:32:51.689Z,3.63
2018-06-20T23:35:19.221Z,3.60
2018-06-20T23:37:46.612Z,3.73
2018-06-20T23:40:14.065Z,3.53
2018-06-20T23:42:41.574Z,3.50
2018-06-20T23:45:08.996Z,3.50
2018-06-20T23:47:36.736Z,3.60
2018-06-20T23:50:04.321Z,3.87
2018-06-20T23:52:31.613Z,4.37
2018-06-20T23:54:59.078Z,3.30
2018-06-20T23:57:26.425Z,4.20
2018-06-20T23:59:53.823Z,3.60
